createdAt,value
2023-09-10T00:01:47.793Z,22.83
2023-09-10T00:04:20.101Z,24.63
2023-09-10T00:06:49.829Z,25.95
2023-09-10T00:09:19.515Z,25.37
2023-09-10T00:11:49.389Z,25.60
2023-09-10T00:14:19.047Z,29.33
2023-09-10T00:16:48.782Z,25.70
2023-09-10T00:19:21.026Z,28.42
2023-09-10T00:21:50.798Z,27.50
2023-09-10T00:24:20.542Z,23.55
2023-09-10T00:26:50.252Z,22.03
2023-09-10T00:29:19.991Z,27.30
2023-09-10T00:31:50.037Z,25.73
2023-09-10T00:34:22.408Z,24.85
2023-09-10T00:36:52.315Z,24.00
2023-09-10T00:39:22.074Z,26.75
2023-09-10T00:41:55.195Z,25.58
2023-09-10T00:44:25.045Z,25.50
2023-09-10T00:46:54.918Z,24.45
2023-09-10T00:49:28.810Z,25.20
2023-09-10T00:51:58.720Z,23.85
2023-09-10T00:54:29.166Z,22.58
2023-09-10T00:56:58.983Z,27.80
2023-09-10T00:59:28.831Z,26.88
2023-09-10T01:01:59.142Z,27.75
2023-09-10T01:04:31.691Z,23.40
2023-09-10T01:07:01.491Z,26.50
2023-09-10T01:09:31.193Z,25.02
2023-09-10T01:12:04.857Z,23.58
2023-09-10T01:14:38.646Z,26.23
2023-09-10T01:17:14.502Z,24.30
2023-09-10T01:20:18.130Z,24.10
2023-09-10T01:22:54.652Z,27.40
2023-09-10T01:25:27.237Z,26.83
2023-09-10T01:27:56.960Z,31.40
2023-09-10T01:30:26.699Z,32.05
2023-09-10T01:33:00.740Z,23.55
2023-09-10T01:35:36.437Z,25.13
2023-09-10T01:38:12.039Z,23.13
2023-09-10T01:40:48.730Z,26.80
2023-09-10T01:43:18.706Z,25.13
2023-09-10T01:45:49.164Z,25.33
2023-09-10T01:48:19.193Z,24.80
2023-09-10T01:50:48.988Z,26.15
2023-09-10T01:53:20.183Z,23.80
2023-09-10T01:55:52.826Z,27.30
2023-09-10T01:58:22.640Z,26.10
2023-09-10T02:00:53.157Z,26.83
2023-09-10T02:03:22.915Z,25.43
2023-09-10T02:05:55.164Z,25.67
2023-09-10T02:08:25.476Z,27.85
2023-09-10T02:10:57.846Z,26.98
2023-09-10T02:13:27.821Z,24.35
2023-09-10T02:15:57.550Z,27.50
2023-09-10T02:18:27.405Z,23.35
2023-09-10T02:20:57.107Z,27.38
2023-09-10T02:23:26.871Z,26.55
2023-09-10T02:25:59.236Z,25.42
2023-09-10T02:28:29.114Z,26.30
2023-09-10T02:30:58.860Z,23.75
2023-09-10T02:33:28.591Z,27.63
2023-09-10T02:35:58.286Z,23.77
2023-09-10T02:38:28.373Z,24.27
2023-09-10T02:41:00.992Z,26.13
2023-09-10T02:43:31.102Z,27.57
2023-09-10T02:46:00.845Z,23.50
2023-09-10T02:48:30.590Z,24.67
2023-09-10T02:51:00.467Z,24.60
2023-09-10T02:53:30.269Z,26.58
2023-09-10T02:56:06.361Z,25.55
2023-09-10T02:58:37.865Z,26.02
2023-09-10T03:01:08.366Z,28.13
2023-09-10T03:03:38.535Z,25.27
2023-09-10T03:06:14.864Z,24.15
2023-09-10T03:08:46.036Z,27.75
2023-09-10T03:11:18.463Z,26.10
2023-09-10T03:13:48.390Z,28.40
2023-09-10T03:16:18.465Z,26.75
2023-09-10T03:18:48.588Z,26.30
2023-09-10T03:21:18.415Z,28.13
2023-09-10T03:23:48.174Z,27.60
2023-09-10T03:26:21.329Z,27.35
2023-09-10T03:28:51.707Z,25.48
2023-09-10T03:31:21.632Z,25.05
2023-09-10T03:33:52.341Z,29.67
2023-09-10T03:36:22.201Z,27.30
2023-09-10T03:38:53.208Z,24.50
2023-09-10T03:41:25.914Z,26.00
2023-09-10T03:43:56.693Z,27.75
2023-09-10T03:46:27.589Z,29.38
2023-09-10T03:48:57.474Z,28.33
2023-09-10T03:51:27.436Z,25.48
2023-09-10T03:53:58.126Z,25.88
2023-09-10T03:56:31.008Z,25.73
2023-09-10T03:59:00.952Z,25.90
2023-09-10T04:01:30.948Z,27.92
2023-09-10T04:04:00.771Z,26.35
2023-09-10T04:06:30.481Z,26.23
2023-09-10T04:09:00.711Z,27.92
2023-09-10T04:11:34.013Z,28.52
2023-09-10T04:14:03.776Z,28.08
2023-09-10T04:16:33.596Z,27.35
2023-09-10T04:19:03.356Z,26.38
2023-09-10T04:21:33.155Z,26.02
2023-09-10T04:24:02.910Z,28.08
2023-09-10T04:26:35.642Z,27.83
2023-09-10T04:29:05.415Z,28.77
2023-09-10T04:31:39.997Z,27.63
2023-09-10T04:34:10.102Z,26.20
2023-09-10T04:36:43.728Z,26.02
2023-09-10T04:39:13.547Z,34.50
2023-09-10T04:41:48.229Z,26.63
2023-09-10T04:44:19.927Z,28.38
2023-09-10T04:46:49.918Z,27.73
2023-09-10T04:49:19.804Z,30.00
2023-09-10T04:51:49.531Z,25.57
2023-09-10T04:54:19.265Z,27.70
2023-09-10T04:56:56.015Z,27.10
2023-09-10T04:59:27.601Z,29.43
2023-09-10T05:02:00.065Z,26.02
2023-09-10T05:04:30.311Z,28.92
2023-09-10T05:07:01.646Z,29.90
2023-09-10T05:09:31.643Z,30.27
2023-09-10T05:12:04.452Z,29.42
2023-09-10T05:14:34.252Z,28.90
2023-09-10T05:17:04.042Z,28.23
2023-09-10T05:19:33.809Z,27.85
2023-09-10T05:22:04.137Z,32.63
2023-09-10T05:24:34.588Z,30.38
2023-09-10T05:27:07.476Z,31.17
2023-09-10T05:29:37.237Z,27.80
2023-09-10T05:32:07.697Z,27.23
2023-09-10T05:34:39.127Z,28.67
2023-09-10T05:37:09.380Z,29.40
2023-09-10T05:39:39.103Z,29.35
2023-09-10T05:42:11.435Z,30.85
2023-09-10T05:44:41.406Z,30.40
2023-09-10T05:47:11.327Z,25.50
2023-09-10T05:49:41.484Z,28.85
2023-09-10T05:52:11.317Z,30.33
2023-09-10T05:54:41.097Z,30.83
2023-09-10T05:57:13.414Z,27.13
2023-09-10T05:59:43.289Z,27.65
2023-09-10T06:02:13.063Z,26.67
2023-09-10T06:04:43.155Z,27.10
2023-09-10T06:07:13.047Z,29.58
2023-09-10T06:09:42.870Z,30.13
2023-09-10T06:12:15.221Z,26.67
2023-09-10T06:14:45.012Z,26.02
2023-09-10T06:17:14.706Z,27.88
2023-09-10T06:19:44.579Z,25.73
2023-09-10T06:22:14.362Z,31.75
2023-09-10T06:24:44.338Z,27.95
2023-09-10T06:27:16.911Z,28.13
2023-09-10T06:29:46.752Z,28.73
2023-09-10T06:32:16.809Z,30.30
2023-09-10T06:34:46.666Z,26.70
2023-09-10T06:37:17.567Z,29.00
2023-09-10T06:39:48.658Z,29.77
2023-09-10T06:42:21.092Z,30.83
2023-09-10T06:45:05.852Z,30.58
2023-09-10T06:47:35.633Z,26.30
2023-09-10T06:50:05.571Z,27.33
2023-09-10T06:52:35.293Z,26.47
2023-09-10T06:55:14.935Z,25.52
2023-09-10T06:57:50.127Z,29.00
2023-09-10T07:00:20.295Z,29.45
2023-09-10T07:02:50.157Z,30.38
2023-09-10T07:05:20.152Z,29.60
2023-09-10T07:07:54.534Z,29.70
2023-09-10T07:10:24.345Z,27.60
2023-09-10T07:12:56.636Z,29.02
2023-09-10T07:15:26.467Z,30.97
2023-09-10T07:17:56.149Z,30.23
2023-09-10T07:20:26.137Z,28.65
2023-09-10T07:22:56.019Z,30.25
2023-09-10T07:25:28.813Z,30.33
2023-09-10T07:28:02.273Z,33.78
2023-09-10T07:30:32.010Z,33.08
2023-09-10T07:33:01.807Z,35.67
2023-09-10T07:35:31.837Z,34.70
2023-09-10T07:38:01.634Z,34.45
2023-09-10T07:40:31.372Z,34.17
2023-09-10T07:43:04.036Z,36.58
2023-09-10T07:45:33.811Z,36.63
2023-09-10T07:48:03.592Z,40.13
2023-09-10T07:50:33.334Z,37.17
2023-09-10T07:53:03.155Z,33.92
2023-09-10T07:55:32.844Z,32.40
2023-09-10T07:58:05.358Z,32.28
2023-09-10T08:00:37.587Z,44.75
2023-09-10T08:03:08.358Z,35.27
2023-09-10T08:05:38.339Z,31.33
2023-09-10T08:08:09.219Z,35.87
2023-09-10T08:10:39.030Z,35.08
2023-09-10T08:13:13.661Z,37.40
2023-09-10T08:15:43.422Z,36.55
2023-09-10T08:18:14.986Z,35.85
2023-09-10T08:20:46.120Z,33.63
2023-09-10T08:23:15.874Z,34.47
2023-09-10T08:25:45.823Z,37.13
2023-09-10T08:28:18.204Z,38.20
2023-09-10T08:30:48.040Z,34.17
2023-09-10T08:33:17.874Z,36.23
2023-09-10T08:35:49.576Z,33.33
2023-09-10T08:38:20.066Z,35.53
2023-09-10T08:41:03.854Z,31.02
2023-09-10T08:43:41.799Z,33.38
2023-09-10T08:46:13.222Z,31.10
2023-09-10T08:48:44.280Z,29.13
2023-09-10T08:51:14.964Z,33.08
2023-09-10T08:53:45.806Z,28.60
2023-09-10T08:56:15.718Z,27.70
2023-09-10T08:58:50.471Z,26.27
2023-09-10T09:01:21.120Z,29.95
2023-09-10T09:03:50.988Z,26.70
2023-09-10T09:06:20.968Z,27.55
2023-09-10T09:08:57.756Z,25.58
2023-09-10T09:11:28.377Z,30.15
2023-09-10T09:14:01.135Z,28.30
2023-09-10T09:16:31.851Z,22.13
2023-09-10T09:19:02.026Z,22.30
2023-09-10T09:21:32.891Z,23.52
2023-09-10T09:24:05.079Z,26.60
2023-09-10T09:26:35.067Z,23.98
2023-09-10T09:29:07.642Z,27.33
2023-09-10T09:31:37.473Z,24.50
2023-09-10T09:34:07.750Z,20.45
2023-09-10T09:36:40.733Z,24.55
2023-09-10T09:39:13.091Z,22.05
2023-09-10T09:41:42.964Z,21.95
2023-09-10T09:44:16.006Z,22.23
2023-09-10T09:46:46.648Z,25.03
2023-09-10T09:49:16.468Z,23.17
2023-09-10T09:51:47.107Z,23.45
2023-09-10T09:54:16.891Z,30.23
2023-09-10T09:56:46.825Z,23.50
2023-09-10T09:59:19.563Z,19.92
2023-09-10T10:01:49.512Z,24.52
2023-09-10T10:04:22.126Z,22.23
2023-09-10T10:06:52.763Z,24.38
2023-09-10T10:09:22.450Z,17.63
2023-09-10T10:11:52.363Z,20.65
2023-09-10T10:14:25.049Z,26.60
2023-09-10T10:16:55.284Z,21.17
2023-09-10T10:19:25.356Z,22.70
2023-09-10T10:21:56.751Z,23.38
2023-09-10T10:24:26.581Z,19.77
2023-09-10T10:26:57.410Z,20.35
2023-09-10T10:29:29.938Z,21.00
2023-09-10T10:32:05.941Z,21.70
2023-09-10T10:34:40.448Z,24.48
2023-09-10T10:37:15.818Z,16.05
2023-09-10T10:39:50.555Z,18.65
2023-09-10T10:42:22.706Z,19.27
2023-09-10T10:44:55.972Z,24.48
2023-09-10T10:47:26.823Z,20.65
2023-09-10T10:49:57.607Z,16.95
2023-09-10T10:52:33.377Z,18.40
2023-09-10T10:55:04.022Z,21.73
2023-09-10T10:57:34.017Z,19.48
2023-09-10T11:00:10.116Z,18.27
2023-09-10T11:02:39.966Z,22.00
2023-09-10T11:05:11.085Z,23.25
2023-09-10T11:07:40.901Z,18.23
2023-09-10T11:10:42.264Z,18.70
2023-09-10T11:13:14.363Z,22.80
2023-09-10T11:16:14.110Z,19.10
2023-09-10T11:18:47.947Z,20.65
2023-09-10T11:21:19.040Z,24.73
2023-09-10T11:24:18.641Z,20.98
2023-09-10T11:26:48.412Z,20.77
2023-09-10T11:29:19.924Z,17.38
2023-09-10T11:31:50.640Z,19.35
2023-09-10T11:34:42.183Z,21.42
2023-09-10T11:37:13.335Z,15.85
2023-09-10T11:39:43.230Z,16.87
2023-09-10T11:42:13.208Z,24.60
2023-09-10T11:44:43.035Z,14.43
2023-09-10T11:47:12.802Z,19.80
2023-09-10T11:49:45.255Z,20.30
2023-09-10T11:52:15.052Z,22.40
2023-09-10T11:54:44.918Z,19.50
2023-09-10T11:57:15.672Z,19.83
2023-09-10T11:59:45.569Z,19.08
2023-09-10T12:02:15.396Z,19.30
2023-09-10T12:04:47.748Z,13.65
2023-09-10T12:07:17.540Z,16.75
2023-09-10T12:09:47.241Z,16.67
2023-09-10T12:12:20.526Z,15.77
2023-09-10T12:14:50.858Z,14.80
2023-09-10T12:17:20.874Z,17.58
2023-09-10T12:19:53.489Z,18.80
2023-09-10T12:22:23.276Z,17.98
2023-09-10T12:24:53.126Z,14.73
2023-09-10T12:27:23.001Z,18.30
2023-09-10T12:29:52.828Z,12.80
2023-09-10T12:32:22.629Z,14.10
2023-09-10T12:34:55.436Z,16.08
2023-09-10T12:37:25.246Z,19.95
2023-09-10T12:39:57.519Z,18.20
2023-09-10T12:42:27.345Z,14.50
2023-09-10T12:44:57.275Z,23.15
2023-09-10T12:47:27.059Z,14.68
2023-09-10T12:49:59.568Z,18.48
2023-09-10T12:52:29.287Z,17.45
2023-09-10T12:54:58.986Z,20.45
2023-09-10T12:57:30.139Z,21.35
2023-09-10T13:00:00.260Z,19.33
2023-09-10T13:02:34.709Z,15.85
2023-09-10T13:05:07.452Z,18.63
2023-09-10T13:07:37.313Z,19.73
2023-09-10T13:10:07.615Z,16.25
2023-09-10T13:12:37.342Z,15.52
2023-09-10T13:15:08.082Z,15.77
2023-09-10T13:17:37.909Z,16.65
2023-09-10T13:20:11.692Z,15.37
2023-09-10T13:22:41.579Z,17.52
2023-09-10T13:25:12.622Z,13.32
2023-09-10T13:27:42.420Z,16.85
2023-09-10T13:30:12.961Z,20.43
2023-09-10T13:32:42.874Z,18.07
2023-09-10T13:35:15.338Z,15.85
2023-09-10T13:37:45.140Z,15.75
2023-09-10T13:40:16.324Z,16.90
2023-09-10T13:42:46.116Z,20.33
2023-09-10T13:45:15.805Z,17.67
2023-09-10T13:47:45.680Z,17.80
2023-09-10T13:50:18.471Z,15.23
2023-09-10T13:52:48.306Z,19.52
2023-09-10T13:55:18.051Z,15.30
2023-09-10T13:57:47.803Z,14.80
2023-09-10T14:00:17.881Z,19.90
2023-09-10T14:02:47.601Z,18.33
2023-09-10T14:05:20.139Z,19.55
2023-09-10T14:07:50.025Z,16.30
2023-09-10T14:10:19.728Z,17.65
2023-09-10T14:12:51.038Z,11.70
2023-09-10T14:15:20.781Z,18.40
2023-09-10T14:17:50.593Z,16.77
2023-09-10T14:20:22.919Z,15.85
2023-09-10T14:22:53.621Z,20.55
2023-09-10T14:25:24.095Z,18.08
2023-09-10T14:27:53.955Z,18.23
2023-09-10T14:30:23.728Z,15.07
2023-09-10T14:32:53.633Z,17.30
2023-09-10T14:35:26.311Z,17.23
2023-09-10T14:37:58.964Z,15.83
2023-09-10T14:40:29.805Z,19.25
2023-09-10T14:42:59.710Z,13.85
2023-09-10T14:45:29.572Z,21.67
2023-09-10T14:47:59.236Z,17.17
2023-09-10T14:50:31.654Z,16.23
2023-09-10T14:53:01.547Z,15.00
2023-09-10T14:55:31.466Z,15.85
2023-09-10T14:58:01.303Z,15.23
2023-09-10T15:00:30.976Z,16.10
2023-09-10T15:03:00.852Z,15.10
2023-09-10T15:05:34.102Z,16.13
2023-09-10T15:08:05.140Z,21.33
2023-09-10T15:10:35.053Z,19.58
2023-09-10T15:13:04.826Z,13.87
2023-09-10T15:15:34.676Z,15.35
2023-09-10T15:18:04.438Z,15.80
2023-09-10T15:20:36.874Z,18.73
2023-09-10T15:23:06.972Z,15.85
2023-09-10T15:25:36.728Z,16.13
2023-09-10T15:28:06.834Z,16.40
2023-09-10T15:30:36.951Z,17.10
2023-09-10T15:33:07.145Z,17.87
2023-09-10T15:35:39.551Z,19.00
2023-09-10T15:38:09.368Z,20.27
2023-09-10T15:40:39.125Z,14.35
2023-09-10T15:43:08.996Z,16.50
2023-09-10T15:45:40.429Z,22.83
2023-09-10T15:48:10.686Z,19.90
2023-09-10T15:50:43.143Z,21.00
2023-09-10T15:53:13.013Z,18.88
2023-09-10T15:55:42.760Z,18.15
2023-09-10T15:58:12.495Z,16.33
2023-09-10T16:00:42.482Z,19.15
2023-09-10T16:03:12.820Z,16.50
2023-09-10T16:05:46.936Z,17.07
2023-09-10T16:08:16.861Z,15.20
2023-09-10T16:10:47.308Z,16.52
2023-09-10T16:13:17.055Z,16.60
2023-09-10T16:15:46.815Z,17.15
2023-09-10T16:18:17.415Z,16.40
2023-09-10T16:20:49.961Z,16.25
2023-09-10T16:23:19.765Z,17.10
2023-09-10T16:25:49.573Z,22.65
2023-09-10T16:28:19.895Z,17.90
2023-09-10T16:30:49.638Z,22.33
2023-09-10T16:33:19.399Z,17.55
2023-09-10T16:35:51.811Z,16.98
2023-09-10T16:38:21.644Z,19.98
2023-09-10T16:40:51.402Z,17.30
2023-09-10T16:43:21.090Z,17.23
2023-09-10T16:45:50.792Z,16.45
2023-09-10T16:48:20.509Z,20.10
2023-09-10T16:50:52.854Z,18.05
2023-09-10T16:53:24.066Z,15.98
2023-09-10T16:55:54.781Z,17.10
2023-09-10T16:58:25.662Z,17.90
2023-09-10T17:00:55.505Z,16.02
2023-09-10T17:03:25.440Z,21.45
2023-09-10T17:05:57.861Z,18.60
2023-09-10T17:08:27.732Z,18.13
2023-09-10T17:10:58.083Z,16.30
2023-09-10T17:13:27.851Z,19.35
2023-09-10T17:16:04.095Z,19.43
2023-09-10T17:18:33.994Z,16.85
2023-09-10T17:21:06.682Z,17.47
2023-09-10T17:23:37.197Z,18.40
2023-09-10T17:26:08.915Z,18.00
2023-09-10T17:28:38.756Z,15.27
2023-09-10T17:31:08.580Z,16.08
2023-09-10T17:33:38.729Z,18.17
2023-09-10T17:36:11.703Z,25.02
2023-09-10T17:38:41.771Z,19.17
2023-09-10T17:41:11.630Z,16.30
2023-09-10T17:43:41.928Z,18.08
2023-09-10T17:46:12.108Z,20.23
2023-09-10T17:48:42.343Z,17.73
2023-09-10T17:51:20.784Z,16.35
2023-09-10T17:53:50.905Z,21.33
2023-09-10T17:56:21.283Z,16.95
2023-09-10T17:58:51.475Z,19.77
2023-09-10T18:01:26.283Z,17.42
2023-09-10T18:03:56.442Z,16.08
2023-09-10T18:06:29.010Z,20.15
2023-09-10T18:09:00.010Z,20.20
2023-09-10T18:11:29.831Z,20.95
2023-09-10T18:13:59.686Z,20.42
2023-09-10T18:16:30.090Z,18.77
2023-09-10T18:18:59.846Z,19.15
2023-09-10T18:21:33.210Z,22.92
2023-09-10T18:24:03.406Z,17.10
2023-09-10T18:26:33.149Z,21.63
2023-09-10T18:29:02.949Z,19.40
2023-09-10T18:31:35.990Z,19.38
2023-09-10T18:34:05.746Z,21.60
2023-09-10T18:36:38.013Z,20.30
2023-09-10T18:39:07.870Z,23.45
2023-09-10T18:41:37.618Z,22.23
2023-09-10T18:44:08.211Z,23.88
2023-09-10T18:46:40.012Z,23.75
2023-09-10T18:49:09.850Z,22.10
2023-09-10T18:52:10.409Z,22.27
2023-09-10T18:54:40.790Z,21.23
2023-09-10T18:57:14.901Z,22.38
2023-09-10T18:59:44.845Z,22.55
2023-09-10T19:02:14.566Z,23.17
2023-09-10T19:04:44.509Z,23.00
2023-09-10T19:07:16.874Z,23.10
2023-09-10T19:09:48.348Z,23.67
2023-09-10T19:12:18.211Z,22.17
2023-09-10T19:14:47.935Z,22.98
2023-09-10T19:17:17.763Z,21.50
2023-09-10T19:19:47.529Z,18.17
2023-09-10T19:22:19.891Z,22.27
2023-09-10T19:24:49.686Z,19.85
2023-09-10T19:27:20.044Z,24.40
2023-09-10T19:29:49.809Z,22.58
2023-09-10T19:32:19.515Z,21.60
2023-09-10T19:34:49.306Z,22.77
2023-09-10T19:37:23.191Z,22.67
2023-09-10T19:39:53.804Z,21.10
2023-09-10T19:42:23.506Z,20.88
2023-09-10T19:44:53.212Z,22.08
2023-09-10T19:47:25.178Z,20.83
2023-09-10T19:49:55.512Z,23.67
2023-09-10T19:52:27.786Z,21.57
2023-09-10T19:55:09.151Z,22.05
2023-09-10T19:57:39.830Z,23.75
2023-09-10T20:00:10.884Z,25.05
2023-09-10T20:02:43.162Z,23.80
2023-09-10T20:05:13.861Z,23.10
2023-09-10T20:07:46.335Z,24.67
2023-09-10T20:10:21.674Z,23.17
2023-09-10T20:12:51.431Z,26.42
2023-09-10T20:15:21.223Z,25.90
2023-09-10T20:17:51.013Z,22.58
2023-09-10T20:20:20.983Z,19.93
2023-09-10T20:22:53.354Z,24.67
2023-09-10T20:25:23.180Z,25.45
2023-09-10T20:27:52.992Z,23.25
2023-09-10T20:30:26.493Z,22.43
2023-09-10T20:32:56.483Z,22.17
2023-09-10T20:35:26.394Z,23.00
2023-09-10T20:38:00.165Z,22.80
2023-09-10T20:40:29.921Z,27.30
2023-09-10T20:42:59.629Z,24.58
2023-09-10T20:45:29.353Z,22.75
2023-09-10T20:47:59.103Z,22.77
2023-09-10T20:50:29.004Z,20.42
2023-09-10T20:53:01.279Z,24.77
2023-09-10T20:55:31.091Z,21.60
2023-09-10T20:58:00.773Z,22.17
2023-09-10T21:00:31.317Z,18.17
2023-09-10T21:03:07.234Z,23.97
2023-09-10T21:05:43.936Z,21.65
2023-09-10T21:08:18.122Z,22.60
2023-09-10T21:10:47.932Z,20.35
2023-09-10T21:13:17.613Z,21.92
2023-09-10T21:15:47.470Z,26.83
2023-09-10T21:18:17.702Z,21.90
2023-09-10T21:20:47.524Z,22.63
2023-09-10T21:23:20.438Z,22.33
2023-09-10T21:25:50.240Z,21.88
2023-09-10T21:28:19.948Z,20.90
2023-09-10T21:30:52.425Z,25.23
2023-09-10T21:33:22.287Z,21.45
2023-09-10T21:35:53.154Z,23.58
2023-09-10T21:38:25.613Z,24.17
2023-09-10T21:40:55.380Z,19.88
2023-09-10T21:43:25.058Z,21.90
2023-09-10T21:45:54.785Z,24.20
2023-09-10T21:48:24.850Z,26.13
2023-09-10T21:50:54.929Z,25.58
2023-09-10T21:53:27.724Z,23.33
2023-09-10T21:55:57.528Z,23.00
2023-09-10T21:58:27.319Z,23.30
2023-09-10T22:00:57.413Z,26.52
2023-09-10T22:03:27.910Z,21.53
2023-09-10T22:06:01.101Z,22.23
2023-09-10T22:08:33.535Z,21.98
2023-09-10T22:11:05.253Z,23.38
2023-09-10T22:13:35.328Z,21.83
2023-09-10T22:16:05.092Z,24.55
2023-09-10T22:18:35.379Z,21.83
2023-09-10T22:21:05.151Z,24.15
2023-09-10T22:23:37.486Z,27.02
2023-09-10T22:26:07.278Z,23.15
2023-09-10T22:28:47.174Z,21.23
2023-09-10T22:31:17.427Z,23.00
2023-09-10T22:33:47.628Z,21.80
2023-09-10T22:36:36.976Z,19.13
2023-09-10T22:39:10.618Z,24.33
2023-09-10T22:41:41.086Z,30.40
2023-09-10T22:44:11.897Z,25.40
2023-09-10T22:46:42.223Z,21.47
2023-09-10T22:49:12.475Z,20.95
2023-09-10T22:51:44.369Z,23.92
2023-09-10T22:54:16.830Z,24.17
2023-09-10T22:56:46.579Z,26.85
2023-09-10T22:59:16.396Z,24.08
2023-09-10T23:01:48.135Z,25.10
2023-09-10T23:04:18.596Z,26.55
2023-09-10T23:06:48.732Z,23.38
2023-09-10T23:09:21.040Z,26.23
2023-09-10T23:11:50.892Z,27.05
2023-09-10T23:14:21.090Z,26.42
2023-09-10T23:16:50.892Z,25.42
2023-09-10T23:19:21.340Z,23.45
2023-09-10T23:21:51.293Z,28.13
2023-09-10T23:24:23.606Z,22.20
2023-09-10T23:26:53.765Z,23.08
2023-09-10T23:29:23.625Z,24.40
2023-09-10T23:31:53.669Z,29.50
2023-09-10T23:34:23.336Z,23.80
2023-09-10T23:36:53.488Z,28.10
2023-09-10T23:39:26.175Z,22.80
2023-09-10T23:41:56.022Z,25.83
2023-09-10T23:44:26.226Z,26.65
2023-09-10T23:53:44.199Z,26.27
2023-09-10T23:56:16.488Z,22.10
2023-09-10T23:58:49.148Z,23.58
